Terminal Aerodrome Forecast
Issued by NWS

Home | Current Version | Previous Version | Text Only | Print | Product List | Glossary On
Versions: 1 2 3 4 5 6 7 8 9 10 11 12 13 14 15 16 17 18
291
FTUS43 KMPX 270522
TAFAXN
TAF
KAXN 270522Z 2706/2806 VRB04KT P6SM SCT050 OVC090
      TEMPO 2709/2713 3SM BR BKN050
     FM271700 09005KT P6SM BKN200=

USA.gov is the U.S. government's official web portal to all federal, state and local government web resources and services.